Wasilla, Alaska
Current Conditions -  °F | °C
As of 6:56 AM on Saturday 25 Oct 2014 (Local Time) from PAWS Reporting Station
Overcast Overcast  
Wind Chill: 28°   Ceiling: 2800
Heat Index: 28°   Visibility: 7mi
Dew Point: 21°   Wind: 0mph
Humidity: 74%   Direction: NA
Pressure: 29.88"   Gusts: NA
Location:  61.58°N, 149.45°W
Report Text: PAWS 251456Z AUTO 00000KT 7SM FEW007 BKN028 OVC049 M02/M06 A2988 RMK AO1 57003
Loading
Personal Weather Stations






























Interactive Weather Map
Tropical Storm Tracking
New forecast layout! Learn more

10-Day Weather Forecast

Advertisements
Track Severe Weather on mobile